createdAt,value
2023-05-16T00:01:05.055Z,16.40
2023-05-16T00:03:32.592Z,16.10
2023-05-16T00:06:02.605Z,15.80
2023-05-16T00:08:31.852Z,15.70
2023-05-16T00:10:58.843Z,15.50
2023-05-16T00:13:26.479Z,15.30
2023-05-16T00:15:55.048Z,15.20
2023-05-16T00:18:23.929Z,15.30
2023-05-16T00:20:55.547Z,15.30
2023-05-16T00:23:22.555Z,15.20
2023-05-16T00:25:49.752Z,15.00
2023-05-16T00:28:16.994Z,15.00
2023-05-16T00:30:44.211Z,15.00
2023-05-16T00:33:11.302Z,14.90
2023-05-16T00:38:07.643Z,14.70
2023-05-16T00:40:34.807Z,14.90
2023-05-16T00:43:02.038Z,14.90
2023-05-16T00:45:29.173Z,14.80
2023-05-16T00:47:56.989Z,14.70
2023-05-16T00:50:24.332Z,14.80
2023-05-16T00:52:51.526Z,14.70
2023-05-16T00:55:19.090Z,14.50
2023-05-16T00:57:46.274Z,14.40
2023-05-16T01:00:15.522Z,14.50
2023-05-16T01:02:43.286Z,14.40
2023-05-16T01:05:11.805Z,14.40
2023-05-16T01:07:39.947Z,14.30
2023-05-16T01:10:08.526Z,14.20
2023-05-16T01:12:38.656Z,14.10
2023-05-16T01:15:09.826Z,14.00
2023-05-16T01:17:47.167Z,13.90
2023-05-16T01:20:21.992Z,14.00
2023-05-16T01:22:54.259Z,13.90
2023-05-16T01:25:33.797Z,13.90
2023-05-16T01:28:02.080Z,13.90
2023-05-16T01:30:32.840Z,14.00
2023-05-16T01:33:00.967Z,14.00
2023-05-16T01:35:28.704Z,14.00
2023-05-16T01:38:07.705Z,14.00
2023-05-16T01:40:53.537Z,14.00
2023-05-16T01:43:24.785Z,14.00
2023-05-16T01:45:55.772Z,13.90
2023-05-16T01:48:23.976Z,13.90
2023-05-16T01:50:55.714Z,13.80
2023-05-16T01:53:25.727Z,13.80
2023-05-16T01:55:54.934Z,13.80
2023-05-16T01:58:25.683Z,13.80
2023-05-16T02:01:00.347Z,13.70
2023-05-16T02:03:27.816Z,13.60
2023-05-16T02:05:54.976Z,13.70
2023-05-16T02:08:22.016Z,13.70
2023-05-16T02:10:50.650Z,13.60
2023-05-16T02:13:17.830Z,13.60
2023-05-16T02:15:45.679Z,13.60
2023-05-16T02:18:13.488Z,13.60
2023-05-16T02:20:40.881Z,13.70
2023-05-16T02:23:08.158Z,13.60
2023-05-16T02:25:35.112Z,13.70
2023-05-16T02:28:02.482Z,13.70
2023-05-16T02:30:29.479Z,13.70
2023-05-16T02:32:56.709Z,13.60
2023-05-16T02:35:23.980Z,13.60
2023-05-16T02:37:51.617Z,13.50
2023-05-16T02:40:19.326Z,13.50
2023-05-16T02:42:46.527Z,13.50
2023-05-16T02:45:13.734Z,13.50
2023-05-16T02:47:40.905Z,13.50
2023-05-16T02:50:08.102Z,13.40
2023-05-16T02:52:35.053Z,13.40
2023-05-16T02:55:16.716Z,13.40
2023-05-16T02:57:49.073Z,13.40
2023-05-16T03:00:18.407Z,13.40
2023-05-16T03:02:46.247Z,13.40
2023-05-16T03:05:13.447Z,13.40
2023-05-16T03:07:40.802Z,13.40
2023-05-16T03:10:08.172Z,13.40
2023-05-16T03:12:35.954Z,13.40
2023-05-16T03:15:04.532Z,13.50
2023-05-16T03:17:32.077Z,13.50
2023-05-16T03:19:59.155Z,13.50
2023-05-16T03:22:27.450Z,13.50
2023-05-16T03:24:54.608Z,13.50
2023-05-16T03:27:23.060Z,13.60
2023-05-16T03:29:50.151Z,13.60
2023-05-16T03:32:17.941Z,13.60
2023-05-16T03:34:45.045Z,13.60
2023-05-16T03:37:15.042Z,13.60
2023-05-16T03:39:42.022Z,13.70
2023-05-16T03:42:09.242Z,13.70
2023-05-16T03:44:36.316Z,13.70
2023-05-16T03:47:03.572Z,13.70
2023-05-16T03:49:30.602Z,13.70
2023-05-16T03:51:58.555Z,13.70
2023-05-16T03:54:25.699Z,13.80
2023-05-16T03:56:52.732Z,13.80
2023-05-16T03:59:19.843Z,13.90
2023-05-16T04:01:47.128Z,13.90
2023-05-16T04:04:14.394Z,14.00
2023-05-16T04:06:41.767Z,14.00
2023-05-16T04:09:09.785Z,14.10
2023-05-16T04:11:38.788Z,14.10
2023-05-16T04:14:10.514Z,14.10
2023-05-16T04:16:39.130Z,14.20
2023-05-16T04:19:06.220Z,14.20
2023-05-16T04:21:33.636Z,14.20
2023-05-16T04:24:00.643Z,14.30
2023-05-16T04:26:28.143Z,14.30
2023-05-16T04:29:02.517Z,14.30
2023-05-16T04:31:35.743Z,14.40
2023-05-16T04:34:03.648Z,14.40
2023-05-16T04:36:31.731Z,14.40
2023-05-16T04:39:01.236Z,14.30
2023-05-16T04:41:28.613Z,14.30
2023-05-16T04:43:58.439Z,14.30
2023-05-16T15:16:16.512Z,14.70
2023-05-16T15:18:43.914Z,14.60
2023-05-16T15:21:11.001Z,14.10
2023-05-16T15:23:38.380Z,13.80
2023-05-16T15:26:05.500Z,13.60
2023-05-16T15:28:32.764Z,13.50
2023-05-16T15:30:59.844Z,13.50
2023-05-16T15:33:26.976Z,13.50
2023-05-16T15:35:54.134Z,13.50
2023-05-16T15:38:21.131Z,13.60
2023-05-16T15:40:52.741Z,13.60
2023-05-16T15:43:28.466Z,13.60
2023-05-16T15:45:55.672Z,13.70
2023-05-16T15:48:22.687Z,13.70
2023-05-16T15:50:49.901Z,13.80
2023-05-16T15:53:16.874Z,13.90
2023-05-16T15:55:45.064Z,13.90
2023-05-16T15:58:12.166Z,14.00
2023-05-16T16:00:41.178Z,14.10
2023-05-16T16:03:09.210Z,14.20
2023-05-16T16:05:36.547Z,14.30
2023-05-16T16:08:04.937Z,14.30
2023-05-16T16:10:32.317Z,14.40
2023-05-16T16:13:00.648Z,14.40
2023-05-16T16:15:31.064Z,14.40
2023-05-16T16:18:00.142Z,14.50
2023-05-16T16:20:27.417Z,14.60
2023-05-16T16:22:54.645Z,14.60
2023-05-16T16:25:23.896Z,14.70
2023-05-16T16:27:51.767Z,14.60
2023-05-16T16:30:19.107Z,14.60
2023-05-16T16:32:48.705Z,14.60
2023-05-16T16:35:16.193Z,14.60
2023-05-16T16:37:54.566Z,14.60
2023-05-16T16:40:30.495Z,14.60
2023-05-16T16:42:59.047Z,14.60
2023-05-16T16:45:27.211Z,14.50
2023-05-16T16:47:54.467Z,14.50
2023-05-16T16:50:21.760Z,14.50
2023-05-16T16:52:48.896Z,14.40
2023-05-16T16:55:16.260Z,14.30
2023-05-16T16:57:43.361Z,14.20
2023-05-16T17:00:11.652Z,14.10
2023-05-16T17:02:38.799Z,14.00
2023-05-16T17:05:06.732Z,13.90
2023-05-16T17:07:34.027Z,13.90
2023-05-16T17:10:01.432Z,13.90
2023-05-16T17:12:29.010Z,13.90
2023-05-16T17:14:57.358Z,13.90
2023-05-16T17:17:25.406Z,13.90
2023-05-16T17:19:53.038Z,13.90
2023-05-16T17:22:22.288Z,13.90
2023-05-16T17:24:49.714Z,14.00
2023-05-16T17:27:17.218Z,14.00
2023-05-16T17:29:44.645Z,14.00
2023-05-16T17:32:11.762Z,14.00
2023-05-16T17:34:39.170Z,14.10
2023-05-16T17:37:07.521Z,14.10
2023-05-16T17:39:34.721Z,14.10
2023-05-16T17:42:02.004Z,14.10
2023-05-16T17:44:29.179Z,14.10
2023-05-16T17:46:57.019Z,14.20
2023-05-16T17:49:24.234Z,14.10
2023-05-16T17:51:52.764Z,14.20
2023-05-16T17:54:22.364Z,14.20
2023-05-16T17:56:50.573Z,14.20
2023-05-16T17:59:18.468Z,14.10
2023-05-16T18:01:46.509Z,14.10
2023-05-16T18:04:14.627Z,14.10
2023-05-16T18:06:41.706Z,14.10
2023-05-16T18:09:10.426Z,14.10
2023-05-16T18:11:39.689Z,14.00
2023-05-16T18:14:09.370Z,14.10
2023-05-16T18:16:36.563Z,14.00
2023-05-16T18:19:05.243Z,14.00
2023-05-16T18:21:32.537Z,14.00
2023-05-16T18:24:00.040Z,14.00
2023-05-16T18:26:30.799Z,14.00
2023-05-16T18:28:58.254Z,14.00
2023-05-16T18:31:25.583Z,13.90
2023-05-16T18:33:52.664Z,13.90
2023-05-16T18:36:20.467Z,13.90
2023-05-16T18:38:47.556Z,13.90
2023-05-16T18:41:14.853Z,13.90
2023-05-16T18:43:42.334Z,13.80
2023-05-16T18:46:12.041Z,13.80
2023-05-16T18:48:39.569Z,13.80
2023-05-16T18:51:07.106Z,13.70
2023-05-16T18:53:34.284Z,13.80
2023-05-16T18:56:10.578Z,13.80
2023-05-16T18:58:38.335Z,13.70
2023-05-16T19:01:05.727Z,13.70
2023-05-16T19:03:33.030Z,13.70
2023-05-16T19:06:00.229Z,13.80
2023-05-16T19:08:37.027Z,13.80
2023-05-16T19:11:14.269Z,13.80
2023-05-16T19:13:44.694Z,13.70
2023-05-16T19:16:15.589Z,13.70
2023-05-16T19:18:44.086Z,13.70
2023-05-16T19:21:13.562Z,13.60
2023-05-16T19:23:40.896Z,13.60
2023-05-16T19:26:07.994Z,13.50
2023-05-16T19:28:35.483Z,13.50
2023-05-16T19:31:02.512Z,13.50
2023-05-16T19:33:29.849Z,13.50
2023-05-16T19:35:58.847Z,13.40
2023-05-16T19:38:27.034Z,13.40
2023-05-16T19:40:55.114Z,13.50
2023-05-16T19:43:22.329Z,13.50
2023-05-16T19:45:49.435Z,13.50
2023-05-16T19:48:17.163Z,13.40
2023-05-16T19:50:44.443Z,13.40
2023-05-16T19:53:11.628Z,13.40
2023-05-16T20:06:17.022Z,13.40
2023-05-16T20:08:44.060Z,13.30
2023-05-16T20:11:12.091Z,13.30
2023-05-16T20:13:39.073Z,13.30
2023-05-16T20:16:06.335Z,13.30
2023-05-16T20:18:34.013Z,13.20
2023-05-16T20:21:01.587Z,13.20
2023-05-16T20:23:28.683Z,13.20
2023-05-16T20:25:56.507Z,13.30
2023-05-16T20:28:23.511Z,13.20
2023-05-16T20:30:51.114Z,13.20
2023-05-16T20:33:18.128Z,13.20
2023-05-16T20:35:45.314Z,13.20
2023-05-16T20:38:12.319Z,13.20
2023-05-16T20:40:39.944Z,13.30
2023-05-16T20:43:08.344Z,13.30
2023-05-16T20:45:36.359Z,13.30
2023-05-16T20:48:03.539Z,13.30
2023-05-16T20:50:31.351Z,13.30
2023-05-16T20:52:58.349Z,13.30
2023-05-16T20:55:26.435Z,13.30
2023-05-16T20:57:54.486Z,13.40
2023-05-16T21:00:22.041Z,13.30
2023-05-16T21:02:49.203Z,13.30
2023-05-16T21:05:25.231Z,13.30
2023-05-16T21:07:53.308Z,13.10
2023-05-16T21:10:20.599Z,13.20
2023-05-16T21:12:47.793Z,13.10
2023-05-16T21:15:14.973Z,13.10
2023-05-16T21:17:42.343Z,13.10
2023-05-16T21:20:09.700Z,13.10
2023-05-16T21:22:36.717Z,13.10
2023-05-16T21:25:03.984Z,13.10
2023-05-16T21:27:31.154Z,13.00
2023-05-16T21:29:58.459Z,12.90
2023-05-16T21:32:28.513Z,12.80
2023-05-16T21:34:55.907Z,12.80
2023-05-16T21:37:23.132Z,12.90
2023-05-16T21:39:50.460Z,12.90
2023-05-16T21:42:17.478Z,12.90
2023-05-16T21:44:44.537Z,12.90
2023-05-16T21:47:11.780Z,12.90
2023-05-16T21:49:39.190Z,12.90
2023-05-16T21:52:07.575Z,12.90
2023-05-16T21:54:34.925Z,12.90
2023-05-16T21:57:02.062Z,12.90
2023-05-16T21:59:29.083Z,12.90
2023-05-16T22:01:56.688Z,12.90
2023-05-16T22:04:24.086Z,12.90
2023-05-16T22:06:51.527Z,12.90
2023-05-16T22:09:18.659Z,12.90
2023-05-16T22:11:46.088Z,12.90
2023-05-16T22:14:13.213Z,12.90
2023-05-16T22:16:40.459Z,12.80
2023-05-16T22:19:07.891Z,12.90
2023-05-16T22:21:35.124Z,12.90
2023-05-16T22:24:02.083Z,12.90
2023-05-16T22:26:29.606Z,12.90
2023-05-16T22:28:58.376Z,12.90
2023-05-16T22:31:25.576Z,13.00
2023-05-16T22:33:52.702Z,13.00
2023-05-16T22:36:20.350Z,13.00
2023-05-16T22:38:47.318Z,13.00
2023-05-16T22:41:14.432Z,12.90
2023-05-16T22:43:41.732Z,12.80
2023-05-16T22:46:09.100Z,12.80
2023-05-16T22:48:36.227Z,12.70
2023-05-16T22:51:03.753Z,12.80
2023-05-16T22:53:30.902Z,12.80
2023-05-16T22:56:00.780Z,12.80
2023-05-16T22:58:27.796Z,12.70
2023-05-16T23:00:55.241Z,12.70
2023-05-16T23:03:24.877Z,12.70
2023-05-16T23:05:52.136Z,12.60
2023-05-16T23:08:19.326Z,12.60
2023-05-16T23:10:46.367Z,12.70
2023-05-16T23:13:13.696Z,12.70
2023-05-16T23:15:41.280Z,12.70
2023-05-16T23:18:08.542Z,12.70
2023-05-16T23:20:36.993Z,12.70
2023-05-16T23:23:04.649Z,12.80
2023-05-16T23:25:31.932Z,12.80
2023-05-16T23:28:01.544Z,12.80
2023-05-16T23:30:28.974Z,12.70
2023-05-16T23:32:56.673Z,12.70
2023-05-16T23:35:24.170Z,12.70
2023-05-16T23:37:51.476Z,12.80
2023-05-16T23:40:19.216Z,12.80
2023-05-16T23:42:46.307Z,12.70
2023-05-16T23:45:13.615Z,12.70
2023-05-16T23:47:41.348Z,12.70
2023-05-16T23:50:08.714Z,12.70
2023-05-16T23:52:35.954Z,12.70
2023-05-16T23:55:02.965Z,12.60
2023-05-16T23:57:30.329Z,12.60
2023-05-16T23:59:58.100Z,12.60
